Terminal Aerodrome Forecast
Issued by NWS Wilmington, OH

Current Version | Previous Version | Graphics & Text | Print | Product List | Glossary On
Versions: 1 2 3 4 5 6 7 8 9 10 11 12 13 14 15 16 17
744
FTUS41 KILN 052338
TAFILN
TAF
KILN 052338Z 0600/0624 17004KT P6SM BKN250
     FM061300 24008KT P6SM SCT080
     FM062300 18003KT P6SM SKC=

USA.gov is the U.S. government's official web portal to all federal, state and local government web resources and services.